Ander, Texas
Current Conditions -  °F | °C
As of 9:35 PM on Monday 22 Dec 2014 (Local Time) from KBEA Reporting Station
Moderate Fog Moderate Fog  
Wind Chill: 58°   Ceiling: 200
Heat Index: 58°   Visibility: 0.25mi
Dew Point: 58°   Wind: 5mph
Humidity: 100%   Direction: 90°E
Pressure: 29.64"   Gusts: NA
Location:  28.6563°N, 97.4287°W
Report Text: KBEA 230335Z AUTO 09004KT 1/4SM FG VV002 14/14 A2964 RMK AO2 T01430143
Loading
Personal Weather Stations






























Interactive Weather Map New forecast layout! Learn more

10-Day Weather Forecast

Advertisements
Track Severe Weather on mobile